»·PEaware :: N5002T KAVX-KSAN

N5002T :: KAVX-KSAN

FLIGHT INFORMATION

Flight Status: Arrived
Operator: Privately registered:
United States
More flights under this callsign
Pilot: Hunter M. (19355)
Aircraft: CESSNA 172 SKYHAWK
(C172)
More flights by this aircraft type
Origin: KAVX Catalina
United States
Destination: KSAN San Diego Intl-Lindbergh
United States
More flights between these airports :: More routes between these airports
Route: CSTP56
File this flight plan on PilotEdge
Remarks: I-8
Altitude:
(Current/Filed)
5,000ft
Speed:
(Current/Filed)
120kts
Departed: 06-Oct-18 12:23 PM
Arrived: 06-Oct-18 01:29 PM
Distance/Time
Traveled:
74nm/1:06
Distance/Time
To Go:
Arrived

Flight Plot

Page will automatically refresh every two minutes.

Flight plan parsing failed; only flown route is shown


Map Options




Map Legend


Flown Route
Filed Route
Departure Airport
Arrival Airport
Navaid (VOR, NDB)
Fix

Horizontal Profiles

Position Reports

Time Latitude Longitude Heading Altitude Ground
Speed
06-Oct-18 12:10 33.402060 -118.418092 143 1605ft 0kts
06-Oct-18 12:11 33.402060 -118.418092 143 1605ft 0kts
06-Oct-18 12:12 33.402060 -118.418092 143 1605ft 0kts
06-Oct-18 12:13 33.402060 -118.418092 143 1605ft 0kts
06-Oct-18 12:14 33.402060 -118.418092 143 1605ft 0kts
06-Oct-18 12:15 33.402060 -118.418092 143 1605ft 0kts
06-Oct-18 12:16 33.402060 -118.418092 143 1605ft 0kts
06-Oct-18 12:17 33.402060 -118.418092 143 1605ft 0kts
06-Oct-18 12:18 33.402060 -118.418092 143 1605ft 0kts
06-Oct-18 12:19 33.402060 -118.418092 143 1605ft 0kts
06-Oct-18 12:20 33.403481 -118.417358 53 1605ft 9kts
06-Oct-18 12:21 33.406749 -118.411849 55 1605ft 22kts
06-Oct-18 12:22 33.406910 -118.411576 54 1605ft 0kts
06-Oct-18 12:23 33.406911 -118.411575 54 1605ft 0kts
06-Oct-18 12:24 33.407365 -118.411776 231 1605ft 8kts
06-Oct-18 12:25 33.396670 -118.429747 236 2033ft 82kts
06-Oct-18 12:26 33.380194 -118.438588 110 2721ft 100kts
06-Oct-18 12:27 33.373305 -118.406327 99 3452ft 100kts
06-Oct-18 12:28 33.368870 -118.372765 98 4025ft 110kts
06-Oct-18 12:29 33.363816 -118.334158 97 4008ft 119kts
06-Oct-18 12:30 33.358660 -118.294869 97 4004ft 119kts
06-Oct-18 12:31 33.353678 -118.257015 96 4385ft 109kts
06-Oct-18 12:32 33.349087 -118.222113 96 4953ft 105kts
06-Oct-18 12:33 33.344064 -118.183915 96 5002ft 119kts
06-Oct-18 12:34 33.338944 -118.145132 97 5001ft 117kts
06-Oct-18 12:35 33.334720 -118.113173 96 5014ft 116kts
06-Oct-18 12:36 33.329636 -118.074806 96 5017ft 117kts
06-Oct-18 12:37 33.324531 -118.036373 96 5018ft 116kts
06-Oct-18 12:38 33.318565 -117.991580 96 5016ft 117kts
06-Oct-18 12:39 33.314291 -117.959562 96 5015ft 117kts
06-Oct-18 12:40 33.308294 -117.914756 96 5014ft 117kts
06-Oct-18 12:41 33.304007 -117.882798 96 5020ft 116kts
06-Oct-18 12:42 33.297991 -117.838057 96 5028ft 117kts
06-Oct-18 12:43 33.293675 -117.806031 97 5029ft 117kts
06-Oct-18 12:44 33.288493 -117.767621 97 5030ft 117kts
06-Oct-18 12:45 33.282975 -117.729215 98 5027ft 117kts
06-Oct-18 12:46 33.259787 -117.706811 158 5032ft 116kts
06-Oct-18 12:47 33.232398 -117.686707 137 5031ft 117kts
06-Oct-18 12:48 33.208682 -117.659695 137 5023ft 118kts
06-Oct-18 12:49 33.184961 -117.632616 137 5026ft 118kts
06-Oct-18 12:50 33.160897 -117.606364 123 5031ft 117kts
06-Oct-18 12:51 33.143115 -117.573254 122 5027ft 118kts
06-Oct-18 12:52 33.122416 -117.534606 122 5028ft 118kts
06-Oct-18 12:53 33.107699 -117.507140 122 5028ft 118kts
06-Oct-18 12:54 33.089947 -117.474010 122 5029ft 118kts
06-Oct-18 12:55 33.072237 -117.440963 122 5029ft 118kts
06-Oct-18 12:56 33.054505 -117.407853 122 5024ft 118kts
06-Oct-18 12:57 33.036874 -117.374534 122 5027ft 118kts
06-Oct-18 12:58 33.019363 -117.341179 122 5025ft 119kts
06-Oct-18 12:59 33.001756 -117.307759 122 5024ft 119kts
06-Oct-18 13:00 32.984106 -117.274360 122 5022ft 119kts
06-Oct-18 13:01 32.966512 -117.241074 122 5023ft 118kts
06-Oct-18 13:02 32.948926 -117.207678 122 5022ft 118kts
06-Oct-18 13:03 32.931472 -117.174279 122 5023ft 118kts
06-Oct-18 13:04 32.914897 -117.140537 122 5025ft 117kts
06-Oct-18 13:05 32.898521 -117.106822 122 5028ft 117kts
06-Oct-18 13:06 32.882160 -117.073149 122 5027ft 117kts
06-Oct-18 13:07 32.865736 -117.039379 122 5028ft 117kts
06-Oct-18 13:08 32.849048 -117.005891 122 5032ft 118kts
06-Oct-18 13:09 32.832069 -116.972259 122 5031ft 118kts
06-Oct-18 13:10 32.815091 -116.938513 122 5020ft 119kts
06-Oct-18 13:11 32.798140 -116.904699 122 5023ft 118kts
06-Oct-18 13:12 32.780752 -116.871212 122 5029ft 119kts
06-Oct-18 13:13 32.762902 -116.838042 122 5032ft 119kts
06-Oct-18 13:14 32.745231 -116.804543 121 5032ft 119kts
06-Oct-18 13:15 32.721455 -116.803831 232 5042ft 104kts
06-Oct-18 13:16 32.701845 -116.829142 243 5020ft 103kts
06-Oct-18 13:17 32.691377 -116.858486 251 4419ft 90kts
06-Oct-18 13:18 32.682735 -116.885962 251 3837ft 85kts
06-Oct-18 13:19 32.675098 -116.909820 251 3241ft 77kts
06-Oct-18 13:20 32.671287 -116.935039 289 3037ft 83kts
06-Oct-18 13:21 32.678966 -116.961163 284 3037ft 82kts
06-Oct-18 13:22 32.684676 -116.988205 283 2796ft 89kts
06-Oct-18 13:23 32.691556 -117.014918 285 2735ft 80kts
06-Oct-18 13:24 32.697827 -117.040204 282 2738ft 81kts
06-Oct-18 13:25 32.704144 -117.068039 281 2242ft 89kts
06-Oct-18 13:26 32.710805 -117.096132 282 1965ft 76kts
06-Oct-18 13:27 32.715757 -117.117155 279 1219ft 64kts
06-Oct-18 13:28 32.720775 -117.137929 288 826ft 63kts
06-Oct-18 13:29 32.725617 -117.157791 283 610ft 61kts
06-Oct-18 13:30 32.730367 -117.176594 282 132ft 57kts
06-Oct-18 13:31 32.732832 -117.186813 302 18ft 13kts
06-Oct-18 13:32 32.733800 -117.186836 23 18ft 0kts
06-Oct-18 13:33 32.733979 -117.185801 112 18ft 11kts
06-Oct-18 13:34 32.732559 -117.181276 105 18ft 25kts
06-Oct-18 13:35 32.732818 -117.180025 14 18ft 0kts
06-Oct-18 13:36 32.732819 -117.180025 14 18ft 0kts
06-Oct-18 13:37 32.732866 -117.180356 258 18ft 5kts
06-Oct-18 13:38 32.733147 -117.180851 16 18ft 0kts
06-Oct-18 13:39 32.733148 -117.180850 16 18ft 0kts
06-Oct-18 13:40 32.733148 -117.180850 16 18ft 0kts
06-Oct-18 13:41 32.733148 -117.180850 16 18ft 0kts
06-Oct-18 13:42 32.733149 -117.180850 16 18ft 0kts
06-Oct-18 13:43 32.733150 -117.180850 16 18ft 0kts
06-Oct-18 13:44 32.733150 -117.180849 16 18ft 0kts
06-Oct-18 13:45 32.733151 -117.180849 16 18ft 0kts

Navigation Log

Ident Type
Flight plan parsing failed, navigation log unavailable